Boston, Massachusetts
Traffic Map
Current Weather Conditions
Boston, Massachusetts
Clear
Clear
11°
Feels Like: 11°
Wind Chill: 11° Ceiling: Unl
Heat Index: 11° Visibility: 10mi
Dew Point: -6° Wind: 23mph
Humidity: 31% Direction: 330° (NNW)
Pressure: 29.68in Gusts: 39mph
Raw Report DataKBOS 241554Z 33020G34KT 10SM CLR 11/M06 A2968 RMK AO2 PK WND 31038/1459 SLP051 T01111056
Traffic Incident Summary
Active as of:
Severity:
Category:
InformationThere was an issue retrieving the traffic information for this location. Please try a different location or try again shortly.
Advertisements
At Last! Intellicast now available for iPhone and Android